createdAt,value
2018-01-24T00:00:46.238Z,0
2018-01-24T00:01:56.371Z,0
2018-01-24T00:03:06.598Z,0
2018-01-24T00:04:16.793Z,0
2018-01-24T00:05:26.960Z,0
2018-01-24T00:06:37.092Z,0
2018-01-24T00:07:47.312Z,0
2018-01-24T00:08:57.512Z,0
2018-01-24T00:10:07.504Z,0
2018-01-24T00:11:17.632Z,0
2018-01-24T00:12:27.767Z,0
2018-01-24T00:13:37.937Z,0
2018-01-24T00:14:48.140Z,0
2018-01-24T00:15:58.411Z,0
2018-01-24T00:17:08.571Z,0
2018-01-24T00:18:18.477Z,0
2018-01-24T00:19:28.644Z,0
2018-01-24T00:20:38.821Z,0
2018-01-24T00:21:48.963Z,0
2018-01-24T00:22:58.832Z,0
2018-01-24T00:24:08.971Z,0
2018-01-24T00:25:19.830Z,0
2018-01-24T00:26:29.960Z,0
2018-01-24T00:27:40.110Z,0
2018-01-24T00:28:50.362Z,0
2018-01-24T00:30:00.800Z,0
2018-01-24T00:31:10.701Z,0
2018-01-24T00:32:20.981Z,0
2018-01-24T00:33:31.118Z,0
2018-01-24T00:34:41.153Z,0
2018-01-24T00:35:51.327Z,0
2018-01-24T00:37:01.449Z,0
2018-01-24T00:38:11.686Z,0
2018-01-24T00:39:21.840Z,0
2018-01-24T00:40:31.700Z,0
2018-01-24T00:41:41.857Z,0
2018-01-24T00:42:51.989Z,0
2018-01-24T00:44:02.100Z,0
2018-01-24T00:45:12.450Z,0
2018-01-24T00:46:22.612Z,0
2018-01-24T00:47:32.768Z,0
2018-01-24T00:48:43.026Z,0
2018-01-24T00:49:53.315Z,0
2018-01-24T00:51:03.469Z,0
2018-01-24T00:52:13.713Z,0
2018-01-24T00:53:23.915Z,0
2018-01-24T00:54:34.098Z,0
2018-01-24T00:55:44.264Z,0
2018-01-24T00:56:54.391Z,0
2018-01-24T00:58:04.537Z,0
2018-01-24T00:59:14.671Z,0
2018-01-24T01:00:24.886Z,0
2018-01-24T01:01:35.062Z,0
2018-01-24T01:02:45.174Z,0
2018-01-24T01:03:55.301Z,0
2018-01-24T01:05:05.432Z,0
2018-01-24T01:06:15.322Z,0
2018-01-24T01:07:25.452Z,0
2018-01-24T01:08:35.561Z,0
2018-01-24T01:09:45.682Z,0
2018-01-24T01:10:55.859Z,0
2018-01-24T01:12:05.886Z,0
2018-01-24T01:13:15.767Z,0
2018-01-24T01:14:25.929Z,0
2018-01-24T01:15:36.065Z,0
2018-01-24T01:16:46.180Z,0
2018-01-24T01:17:56.322Z,0
2018-01-24T01:19:06.507Z,0
2018-01-24T01:20:16.651Z,0
2018-01-24T01:21:26.864Z,0
2018-01-24T01:22:37.029Z,0
2018-01-24T01:23:47.250Z,0
2018-01-24T01:24:57.412Z,0
2018-01-24T01:26:07.545Z,0
2018-01-24T01:27:17.656Z,0
2018-01-24T01:28:27.492Z,0
2018-01-24T01:29:37.633Z,0
2018-01-24T01:30:47.776Z,0
2018-01-24T01:31:57.944Z,0
2018-01-24T01:33:08.223Z,0
2018-01-24T01:34:18.463Z,0
2018-01-24T01:35:28.915Z,0
2018-01-24T01:36:39.056Z,0
2018-01-24T01:37:48.939Z,0
2018-01-24T01:38:59.054Z,0
2018-01-24T01:40:09.205Z,0
2018-01-24T01:41:19.336Z,0
2018-01-24T01:42:29.498Z,0
2018-01-24T01:43:39.653Z,0
2018-01-24T01:44:49.768Z,0
2018-01-24T01:45:59.921Z,0
2018-01-24T01:47:10.060Z,0
2018-01-24T01:48:20.213Z,0
2018-01-24T01:49:30.346Z,0
2018-01-24T01:50:40.531Z,0
2018-01-24T01:51:50.718Z,0
2018-01-24T01:53:00.864Z,0
2018-01-24T01:54:10.958Z,0
2018-01-24T01:55:21.086Z,0
2018-01-24T01:56:31.223Z,0
2018-01-24T01:57:41.389Z,0
2018-01-24T01:58:51.540Z,0
2018-01-24T02:00:01.786Z,0
2018-01-24T02:01:11.892Z,0
2018-01-24T02:02:22.000Z,0
2018-01-24T02:03:32.121Z,0
2018-01-24T02:04:42.255Z,0
2018-01-24T02:05:52.469Z,0
2018-01-24T02:07:02.650Z,0
2018-01-24T02:08:12.874Z,0
2018-01-24T02:09:23.145Z,0
2018-01-24T02:10:33.371Z,0
2018-01-24T02:11:43.534Z,0
2018-01-24T02:12:53.759Z,0
2018-01-24T02:14:03.897Z,0
2018-01-24T02:15:13.944Z,0
2018-01-24T02:16:24.065Z,0
2018-01-24T02:17:34.176Z,0
2018-01-24T02:18:44.273Z,0
2018-01-24T02:19:54.396Z,0
2018-01-24T02:21:04.364Z,0
2018-01-24T02:22:14.568Z,0
2018-01-24T02:23:24.824Z,0
2018-01-24T02:24:34.802Z,0
2018-01-24T02:25:44.920Z,0
2018-01-24T02:26:55.125Z,0
2018-01-24T02:28:05.244Z,0
2018-01-24T02:29:15.462Z,0
2018-01-24T02:30:25.674Z,0
2018-01-24T02:31:35.847Z,0
2018-01-24T02:32:46.069Z,0
2018-01-24T02:33:56.203Z,0
2018-01-24T02:35:06.320Z,0
2018-01-24T02:36:16.447Z,0
2018-01-24T02:37:26.572Z,0
2018-01-24T02:38:36.776Z,0
2018-01-24T02:39:46.971Z,0
2018-01-24T02:40:57.199Z,0
2018-01-24T02:42:07.325Z,0
2018-01-24T02:43:17.539Z,0
2018-01-24T02:44:27.414Z,0
2018-01-24T02:45:37.529Z,0
2018-01-24T02:46:47.685Z,0
2018-01-24T02:47:57.540Z,0
2018-01-24T02:49:07.404Z,0
2018-01-24T02:50:17.514Z,0
2018-01-24T02:51:27.667Z,0
2018-01-24T02:52:37.888Z,0
2018-01-24T02:53:48.063Z,0
2018-01-24T02:54:58.182Z,0
2018-01-24T02:56:08.359Z,0
2018-01-24T02:57:18.496Z,0
2018-01-24T02:58:28.608Z,0
2018-01-24T02:59:38.823Z,0
2018-01-24T03:00:49.064Z,0
2018-01-24T03:01:59.063Z,0
2018-01-24T03:03:09.251Z,0
2018-01-24T03:04:19.363Z,0
2018-01-24T03:05:29.492Z,0
2018-01-24T03:06:39.634Z,0
2018-01-24T03:07:49.803Z,0
2018-01-24T03:08:59.979Z,0
2018-01-24T03:10:10.176Z,0
2018-01-24T03:11:20.329Z,0
2018-01-24T03:12:30.546Z,0
2018-01-24T03:13:40.700Z,0
2018-01-24T03:14:50.849Z,0
2018-01-24T03:16:00.963Z,0
2018-01-24T03:17:11.140Z,0
2018-01-24T03:18:21.310Z,0
2018-01-24T03:19:31.446Z,0
2018-01-24T03:20:41.564Z,0
2018-01-24T03:21:51.690Z,0
2018-01-24T03:23:01.864Z,0
2018-01-24T03:24:12.008Z,0
2018-01-24T03:25:22.127Z,0
2018-01-24T03:26:32.030Z,0
2018-01-24T03:27:42.145Z,0
2018-01-24T03:28:52.284Z,0
2018-01-24T03:30:02.634Z,0
2018-01-24T03:31:12.862Z,0
2018-01-24T03:32:22.988Z,0
2018-01-24T03:33:33.218Z,0
2018-01-24T03:34:43.091Z,0
2018-01-24T03:35:53.312Z,0
2018-01-24T03:37:03.447Z,0
2018-01-24T03:38:13.333Z,0
2018-01-24T03:39:23.436Z,0
2018-01-24T03:40:33.598Z,0
2018-01-24T03:41:43.836Z,0
2018-01-24T03:42:54.073Z,0
2018-01-24T03:44:04.220Z,0
2018-01-24T03:45:14.541Z,0
2018-01-24T03:46:24.742Z,0
2018-01-24T03:47:34.915Z,0
2018-01-24T03:48:45.303Z,0
2018-01-24T03:49:55.184Z,0
2018-01-24T03:51:05.303Z,0
2018-01-24T03:52:15.484Z,0
2018-01-24T03:53:25.597Z,0
2018-01-24T03:54:35.747Z,0
2018-01-24T03:55:45.871Z,0
2018-01-24T03:56:56.063Z,0
2018-01-24T03:58:05.948Z,0
2018-01-24T03:59:15.825Z,0
2018-01-24T04:00:25.951Z,0
2018-01-24T04:01:36.116Z,0
2018-01-24T04:02:46.322Z,0
2018-01-24T04:03:56.205Z,0
2018-01-24T04:05:06.329Z,0
2018-01-24T04:06:16.558Z,0
2018-01-24T04:07:26.818Z,0
2018-01-24T04:08:36.999Z,0
2018-01-24T04:09:47.202Z,0
2018-01-24T04:10:57.435Z,0
2018-01-24T04:12:07.609Z,0
2018-01-24T04:13:17.524Z,0
2018-01-24T04:14:27.675Z,0
2018-01-24T04:15:37.833Z,0
2018-01-24T04:16:47.955Z,0
2018-01-24T04:17:58.167Z,0
2018-01-24T04:19:08.393Z,0
2018-01-24T04:20:18.247Z,0
2018-01-24T04:21:28.382Z,0
2018-01-24T04:22:38.662Z,0
2018-01-24T04:23:48.545Z,0
2018-01-24T04:24:58.666Z,0
2018-01-24T04:26:08.840Z,0
2018-01-24T04:27:19.096Z,0
2018-01-24T04:28:29.305Z,0
2018-01-24T04:29:39.524Z,0
2018-01-24T04:30:49.675Z,0
2018-01-24T04:31:59.840Z,0
2018-01-24T04:33:10.009Z,0
2018-01-24T04:34:20.125Z,0
2018-01-24T04:35:30.248Z,0
2018-01-24T04:36:40.411Z,0
2018-01-24T04:37:50.664Z,0
2018-01-24T04:39:00.819Z,0
2018-01-24T04:40:11.031Z,0
2018-01-24T04:41:21.257Z,0
2018-01-24T04:42:31.477Z,0
2018-01-24T04:43:41.687Z,0
2018-01-24T04:44:51.851Z,0
2018-01-24T04:46:02.090Z,0
2018-01-24T04:47:12.240Z,0
2018-01-24T04:48:22.363Z,0
2018-01-24T04:49:32.459Z,0
2018-01-24T04:50:42.598Z,0
2018-01-24T04:51:52.749Z,0
2018-01-24T04:53:02.683Z,0
2018-01-24T04:54:13.047Z,0
2018-01-24T04:55:23.429Z,0
2018-01-24T04:56:33.669Z,0
2018-01-24T04:57:43.793Z,0
2018-01-24T04:58:53.906Z,0
2018-01-24T05:00:04.009Z,0
2018-01-24T05:01:14.157Z,0
2018-01-24T05:02:24.269Z,0
2018-01-24T05:03:34.504Z,0
2018-01-24T05:04:44.706Z,0
2018-01-24T05:05:54.950Z,0
2018-01-24T05:07:04.817Z,0
2018-01-24T05:08:14.938Z,0
2018-01-24T05:09:25.099Z,0
2018-01-24T05:10:35.218Z,0
2018-01-24T05:11:45.394Z,0
2018-01-24T05:12:55.630Z,0
2018-01-24T05:14:05.790Z,0
2018-01-24T05:15:16.943Z,0
2018-01-24T05:16:27.068Z,0
2018-01-24T05:17:37.256Z,0
2018-01-24T05:18:47.431Z,0
2018-01-24T05:19:57.618Z,0
2018-01-24T05:21:07.776Z,0
2018-01-24T05:22:18.037Z,0
2018-01-24T05:23:28.217Z,0
2018-01-24T05:24:38.448Z,0
2018-01-24T05:25:48.753Z,0
2018-01-24T05:26:59.036Z,0
2018-01-24T05:28:09.205Z,0
2018-01-24T05:29:19.343Z,0
2018-01-24T05:30:29.617Z,0
2018-01-24T05:31:39.794Z,0
2018-01-24T05:32:49.999Z,0
2018-01-24T05:33:59.993Z,0
2018-01-24T05:35:10.107Z,0
2018-01-24T05:36:20.231Z,0
2018-01-24T05:37:30.008Z,0
2018-01-24T05:38:40.173Z,0
2018-01-24T05:39:50.393Z,0
2018-01-24T05:41:00.543Z,0
2018-01-24T05:42:10.843Z,0
2018-01-24T05:43:21.077Z,0
2018-01-24T05:44:31.304Z,0
2018-01-24T05:45:41.472Z,0
2018-01-24T05:46:51.609Z,0
2018-01-24T05:48:01.722Z,0
2018-01-24T05:49:11.866Z,0
2018-01-24T05:50:21.984Z,0
2018-01-24T05:51:32.171Z,0
2018-01-24T05:52:42.401Z,0
2018-01-24T05:53:52.516Z,0
2018-01-24T05:55:02.655Z,0
2018-01-24T05:56:12.775Z,0
2018-01-24T05:57:22.925Z,0
2018-01-24T05:58:33.058Z,0
2018-01-24T05:59:43.181Z,0
2018-01-24T06:00:53.402Z,0
2018-01-24T06:02:03.626Z,0
2018-01-24T06:03:13.839Z,0
2018-01-24T06:04:23.701Z,0
2018-01-24T06:05:33.841Z,0
2018-01-24T06:06:43.961Z,0
2018-01-24T06:07:54.206Z,0
2018-01-24T06:09:04.398Z,0
2018-01-24T06:10:14.889Z,0
2018-01-24T06:11:25.031Z,0
2018-01-24T06:12:35.162Z,0
2018-01-24T06:13:45.417Z,0
2018-01-24T06:14:55.633Z,0
2018-01-24T06:16:05.763Z,0
2018-01-24T06:17:15.938Z,0
2018-01-24T06:18:26.252Z,0
2018-01-24T06:19:36.383Z,0
2018-01-24T06:20:46.828Z,0
2018-01-24T06:21:56.991Z,0
2018-01-24T06:23:07.233Z,0
2018-01-24T06:24:17.485Z,0
2018-01-24T06:25:27.664Z,0
2018-01-24T06:26:37.540Z,0
2018-01-24T06:27:47.652Z,0
2018-01-24T06:28:57.813Z,0
2018-01-24T06:30:08.032Z,0
2018-01-24T06:31:18.232Z,0
2018-01-24T06:32:28.381Z,0
2018-01-24T06:33:38.502Z,0
2018-01-24T06:34:48.642Z,0
2018-01-24T06:35:58.506Z,4
2018-01-24T06:37:08.733Z,0
2018-01-24T06:38:18.860Z,4
2018-01-24T06:39:28.998Z,4
2018-01-24T06:40:39.107Z,4
2018-01-24T06:41:49.261Z,4
2018-01-24T06:42:59.423Z,4
2018-01-24T06:44:09.453Z,4
2018-01-24T06:45:19.600Z,4
2018-01-24T06:46:29.723Z,8
2018-01-24T06:47:39.905Z,12
2018-01-24T06:48:50.099Z,8
2018-01-24T06:50:00.285Z,12
2018-01-24T06:51:10.458Z,12
2018-01-24T06:52:20.617Z,12
2018-01-24T06:53:30.764Z,12
2018-01-24T06:54:40.885Z,16
2018-01-24T06:55:51.069Z,24
2018-01-24T06:57:01.254Z,28
2018-01-24T06:58:11.399Z,28
2018-01-24T06:59:21.558Z,28
2018-01-24T07:00:31.817Z,28
2018-01-24T07:01:41.952Z,28
2018-01-24T07:02:51.805Z,24
2018-01-24T07:04:01.654Z,28
2018-01-24T07:05:11.775Z,44
2018-01-24T07:06:21.918Z,60
2018-01-24T07:07:32.176Z,68
2018-01-24T07:08:42.345Z,80
2018-01-24T07:09:52.581Z,96
2018-01-24T07:11:02.844Z,120
2018-01-24T07:12:13.102Z,140
2018-01-24T07:13:23.366Z,156
2018-01-24T07:14:33.545Z,180
2018-01-24T07:15:43.702Z,204
2018-01-24T07:16:53.982Z,228
2018-01-24T07:18:04.345Z,248
2018-01-24T07:19:14.503Z,276
2018-01-24T07:20:24.370Z,292
2018-01-24T07:21:34.488Z,280
2018-01-24T07:22:44.720Z,296
2018-01-24T07:23:54.841Z,340
2018-01-24T07:25:04.952Z,392
2018-01-24T07:26:15.099Z,432
2018-01-24T07:27:25.278Z,464
2018-01-24T07:28:35.381Z,476
2018-01-24T07:29:45.247Z,504
2018-01-24T07:30:55.398Z,540
2018-01-24T07:32:05.535Z,580
2018-01-24T07:33:15.386Z,664
2018-01-24T07:34:25.506Z,768
2018-01-24T07:35:35.682Z,884
2018-01-24T07:36:45.927Z,1040
2018-01-24T07:37:56.061Z,1188
2018-01-24T07:39:05.945Z,1272
2018-01-24T07:40:16.056Z,1312
2018-01-24T07:41:26.197Z,1428
2018-01-24T07:42:36.322Z,1576
2018-01-24T07:43:46.563Z,1784
2018-01-24T07:44:56.445Z,1928
2018-01-24T07:46:06.573Z,1980
2018-01-24T07:47:17.791Z,2088
2018-01-24T07:48:27.521Z,2220
2018-01-24T07:49:37.640Z,2348
2018-01-24T07:50:47.530Z,2480
2018-01-24T07:51:57.765Z,2588
2018-01-24T07:53:07.933Z,2732
2018-01-24T07:54:18.090Z,2872
2018-01-24T07:55:28.220Z,3012
2018-01-24T07:56:38.360Z,3160
2018-01-24T07:57:48.483Z,3304
2018-01-24T07:58:58.631Z,3432
2018-01-24T08:00:08.501Z,3508
2018-01-24T08:01:18.612Z,3580
2018-01-24T08:02:28.787Z,3620
2018-01-24T08:03:38.922Z,3628
2018-01-24T08:04:49.157Z,3688
2018-01-24T08:05:59.432Z,3792
2018-01-24T08:07:09.627Z,3876
2018-01-24T08:08:19.778Z,4076
2018-01-24T08:09:30.062Z,4276
2018-01-24T08:10:40.216Z,4420
2018-01-24T08:11:50.471Z,4432
2018-01-24T08:13:00.666Z,4476
2018-01-24T08:14:10.962Z,4304
2018-01-24T08:15:21.110Z,4300
2018-01-24T08:16:31.417Z,4104
2018-01-24T08:17:42.680Z,3892
2018-01-24T08:18:53.768Z,3820
2018-01-24T08:20:03.988Z,3808
2018-01-24T08:21:14.214Z,3784
2018-01-24T08:22:24.173Z,3788
2018-01-24T08:23:34.287Z,3836
2018-01-24T08:24:44.427Z,3872
2018-01-24T08:25:54.614Z,4024
2018-01-24T08:27:04.737Z,4388
2018-01-24T08:28:14.958Z,4672
2018-01-24T08:29:25.120Z,5020
2018-01-24T08:30:35.301Z,5592
2018-01-24T08:31:45.491Z,6232
2018-01-24T08:32:55.631Z,7384
2018-01-24T08:34:05.763Z,8516
2018-01-24T08:35:15.944Z,9264
2018-01-24T08:36:26.169Z,9544
2018-01-24T08:37:36.321Z,9668
2018-01-24T08:38:47.567Z,9640
2018-01-24T08:39:57.742Z,11192
2018-01-24T08:41:08.006Z,13824
2018-01-24T08:42:18.218Z,14144
2018-01-24T08:43:28.364Z,13856
2018-01-24T08:44:45.038Z,13760
2018-01-24T08:45:55.193Z,14272
2018-01-24T08:47:05.365Z,13760
2018-01-24T08:48:15.482Z,14432
2018-01-24T08:49:25.237Z,13728
2018-01-24T08:50:35.358Z,13248
2018-01-24T08:51:46.338Z,14624
2018-01-24T08:52:56.499Z,14464
2018-01-24T08:54:06.798Z,13888
2018-01-24T08:55:17.011Z,13664
2018-01-24T08:56:28.170Z,13440
2018-01-24T08:57:38.156Z,14208
2018-01-24T08:58:48.350Z,13984
2018-01-24T08:59:58.475Z,14784
2018-01-24T09:01:08.671Z,13952
2018-01-24T09:02:18.854Z,13440
2018-01-24T09:03:29.007Z,13824
2018-01-24T09:04:39.299Z,14080
2018-01-24T09:05:49.567Z,14240
2018-01-24T09:06:59.711Z,12200
2018-01-24T09:08:09.916Z,11000
2018-01-24T09:09:20.180Z,10956
2018-01-24T09:10:30.416Z,12248
2018-01-24T09:11:40.618Z,14688
2018-01-24T09:12:50.802Z,13308
2018-01-24T09:14:01.014Z,13416
2018-01-24T09:15:12.264Z,14656
2018-01-24T09:16:22.512Z,14944
2018-01-24T09:17:32.405Z,15136
2018-01-24T09:18:42.595Z,15680
2018-01-24T09:19:53.713Z,16672
2018-01-24T09:21:03.854Z,17088
2018-01-24T09:22:14.054Z,17152
2018-01-24T09:23:24.319Z,16704
2018-01-24T09:24:34.462Z,17184
2018-01-24T09:25:44.629Z,16576
2018-01-24T09:26:54.774Z,17248
2018-01-24T09:28:04.900Z,17664
2018-01-24T09:29:15.020Z,17504
2018-01-24T09:30:25.190Z,17440
2018-01-24T09:31:35.390Z,18912
2018-01-24T09:32:45.546Z,18112
2018-01-24T09:33:55.776Z,14848
2018-01-24T09:35:06.003Z,11140
2018-01-24T09:36:16.268Z,9580
2018-01-24T09:37:26.485Z,8368
2018-01-24T09:38:36.354Z,8188
2018-01-24T09:39:46.512Z,7776
2018-01-24T09:40:56.659Z,8032
2018-01-24T09:42:06.784Z,8120
2018-01-24T09:43:17.062Z,9196
2018-01-24T09:44:27.223Z,9708
2018-01-24T09:45:36.998Z,9264
2018-01-24T09:46:46.910Z,8680
2018-01-24T09:47:57.043Z,7948
2018-01-24T09:49:07.173Z,8056
2018-01-24T09:50:17.292Z,9624
2018-01-24T09:51:28.397Z,11592
2018-01-24T09:52:38.533Z,15296
2018-01-24T09:53:48.671Z,16256
2018-01-24T09:54:58.819Z,15264
2018-01-24T09:56:09.034Z,14248
2018-01-24T09:57:19.255Z,13040
2018-01-24T09:58:29.420Z,11304
2018-01-24T09:59:39.850Z,11460
2018-01-24T10:00:50.072Z,10584
2018-01-24T10:02:00.193Z,9144
2018-01-24T10:03:10.311Z,9108
2018-01-24T10:04:20.508Z,12940
2018-01-24T10:05:30.762Z,14400
2018-01-24T10:06:40.913Z,16960
2018-01-24T10:07:51.046Z,17600
2018-01-24T10:09:02.183Z,18112
2018-01-24T10:10:12.320Z,17120
2018-01-24T10:11:22.470Z,15648
2018-01-24T10:12:32.307Z,17248
2018-01-24T10:13:42.509Z,16576
2018-01-24T10:14:52.973Z,16896
2018-01-24T10:16:03.169Z,16064
2018-01-24T10:17:13.320Z,15808
2018-01-24T10:18:23.501Z,16032
2018-01-24T10:19:33.659Z,16608
2018-01-24T10:20:43.805Z,17024
2018-01-24T10:21:54.046Z,15936
2018-01-24T10:23:04.240Z,15744
2018-01-24T10:24:14.386Z,15296
2018-01-24T10:25:24.566Z,16448
2018-01-24T10:26:34.788Z,16096
2018-01-24T10:27:44.666Z,16512
2018-01-24T10:28:54.837Z,15776
2018-01-24T10:30:04.984Z,19200
2018-01-24T10:31:14.912Z,17760
2018-01-24T10:32:25.041Z,19680
2018-01-24T10:33:35.180Z,17888
2018-01-24T10:34:45.385Z,17248
2018-01-24T10:35:55.617Z,18208
2018-01-24T10:37:05.845Z,18272
2018-01-24T10:38:16.049Z,19552
2018-01-24T10:39:26.291Z,20992
2018-01-24T10:40:36.523Z,21856
2018-01-24T10:41:46.669Z,24448
2018-01-24T10:42:56.905Z,24704
2018-01-24T10:44:07.134Z,22016
2018-01-24T10:45:17.428Z,21728
2018-01-24T10:46:27.888Z,24864
2018-01-24T10:47:38.040Z,24896
2018-01-24T10:48:48.170Z,27680
2018-01-24T10:49:58.358Z,25120
2018-01-24T10:51:08.546Z,22752
2018-01-24T10:52:18.709Z,23328
2018-01-24T10:53:28.956Z,21888
2018-01-24T10:54:39.155Z,20448
2018-01-24T10:55:49.346Z,22912
2018-01-24T10:56:59.608Z,20960
2018-01-24T10:58:09.849Z,24640
2018-01-24T10:59:19.974Z,27264
2018-01-24T11:00:30.387Z,24224
2018-01-24T11:01:40.524Z,23456
2018-01-24T11:02:50.716Z,23488
2018-01-24T11:04:00.869Z,24064
2018-01-24T11:05:11.094Z,25376
2018-01-24T11:06:21.247Z,26752
2018-01-24T11:07:31.585Z,23776
2018-01-24T11:08:41.822Z,24896
2018-01-24T11:09:51.978Z,23744
2018-01-24T11:11:02.241Z,23136
2018-01-24T11:12:12.451Z,23392
2018-01-24T11:13:22.730Z,24992
2018-01-24T11:14:32.909Z,27296
2018-01-24T11:15:43.189Z,28480
2018-01-24T11:16:53.382Z,24672
2018-01-24T11:18:05.160Z,24352
2018-01-24T11:19:15.060Z,25248
2018-01-24T11:20:25.270Z,24512
2018-01-24T11:21:35.409Z,27776
2018-01-24T11:22:45.589Z,27104
2018-01-24T11:23:55.784Z,27840
2018-01-24T11:25:05.958Z,29088
2018-01-24T11:26:16.124Z,27328
2018-01-24T11:27:26.349Z,29920
2018-01-24T11:28:36.587Z,30944
2018-01-24T11:29:46.824Z,29568
2018-01-24T11:30:57.033Z,28512
2018-01-24T11:32:07.297Z,27776
2018-01-24T11:33:17.487Z,25088
2018-01-24T11:34:27.687Z,17024
2018-01-24T11:35:37.907Z,17728
2018-01-24T11:36:48.115Z,13888
2018-01-24T11:37:58.389Z,13576
2018-01-24T11:39:08.574Z,14020
2018-01-24T11:40:18.807Z,11864
2018-01-24T11:41:28.969Z,10064
2018-01-24T11:42:39.129Z,9992
2018-01-24T11:43:49.292Z,14944
2018-01-24T11:44:59.437Z,17440
2018-01-24T11:46:09.576Z,16480
2018-01-24T11:47:19.708Z,17984
2018-01-24T11:48:29.868Z,16896
2018-01-24T11:49:40.145Z,13808
2018-01-24T11:50:50.282Z,11812
2018-01-24T11:52:00.454Z,11492
2018-01-24T11:53:10.748Z,11112
2018-01-24T11:54:20.931Z,11412
2018-01-24T11:55:31.131Z,11356
2018-01-24T11:56:41.289Z,11644
2018-01-24T11:57:51.190Z,12292
2018-01-24T11:59:01.408Z,12072
2018-01-24T12:00:11.630Z,11888
2018-01-24T12:01:21.849Z,11736
2018-01-24T12:02:32.045Z,11324
2018-01-24T12:03:42.252Z,11476
2018-01-24T12:04:52.422Z,11132
2018-01-24T12:06:02.778Z,10848
2018-01-24T12:07:13.122Z,11056
2018-01-24T12:08:23.255Z,12236
2018-01-24T12:09:33.409Z,11840
2018-01-24T12:10:43.439Z,12180
2018-01-24T12:11:53.580Z,11080
2018-01-24T12:13:03.451Z,10732
2018-01-24T12:14:13.588Z,10420
2018-01-24T12:15:23.728Z,10668
2018-01-24T12:16:33.905Z,11240
2018-01-24T12:17:44.079Z,11400
2018-01-24T12:18:54.325Z,11036
2018-01-24T12:20:04.446Z,11164
2018-01-24T12:21:14.644Z,11340
2018-01-24T12:22:24.787Z,11660
2018-01-24T12:23:34.994Z,11456
2018-01-24T12:24:45.208Z,11992
2018-01-24T12:25:55.422Z,11968
2018-01-24T12:27:05.575Z,11644
2018-01-24T12:28:15.751Z,11216
2018-01-24T12:29:25.903Z,10868
2018-01-24T12:30:36.047Z,10744
2018-01-24T12:31:46.239Z,10568
2018-01-24T12:32:56.401Z,10744
2018-01-24T12:34:06.652Z,11032
2018-01-24T12:35:16.840Z,11000
2018-01-24T12:36:27.012Z,10588
2018-01-24T12:37:37.203Z,10332
2018-01-24T12:38:47.435Z,10148
2018-01-24T12:39:57.620Z,9980
2018-01-24T12:41:07.760Z,9416
2018-01-24T12:42:17.935Z,9160
2018-01-24T12:43:28.075Z,9172
2018-01-24T12:44:38.209Z,9032
2018-01-24T12:45:48.377Z,9444
2018-01-24T12:46:58.592Z,9288
2018-01-24T12:48:08.767Z,8984
2018-01-24T12:49:18.943Z,8940
2018-01-24T12:50:29.092Z,9108
2018-01-24T12:51:39.233Z,9248
2018-01-24T12:52:49.357Z,9432
2018-01-24T12:53:59.490Z,9540
2018-01-24T12:55:09.721Z,9552
2018-01-24T12:56:19.921Z,9676
2018-01-24T12:57:30.106Z,10156
2018-01-24T12:58:40.321Z,10032
2018-01-24T12:59:50.523Z,10092
2018-01-24T13:01:00.735Z,9984
2018-01-24T13:02:10.938Z,9560
2018-01-24T13:03:21.100Z,9556
2018-01-24T13:04:31.353Z,9292
2018-01-24T13:05:41.540Z,9472
2018-01-24T13:06:51.713Z,9328
2018-01-24T13:08:01.974Z,9076
2018-01-24T13:09:11.895Z,9028
2018-01-24T13:10:22.051Z,9120
2018-01-24T13:11:32.217Z,9184
2018-01-24T13:12:42.519Z,9092
2018-01-24T13:13:52.691Z,8996
2018-01-24T13:15:02.831Z,8952
2018-01-24T13:16:13.132Z,8832
2018-01-24T13:17:23.316Z,8624
2018-01-24T13:18:33.613Z,8208
2018-01-24T13:19:43.858Z,7776
2018-01-24T13:20:54.082Z,7480
2018-01-24T13:22:04.294Z,7508
2018-01-24T13:23:14.498Z,7528
2018-01-24T13:24:24.658Z,7484
2018-01-24T13:25:34.794Z,7432
2018-01-24T13:26:45.077Z,7304
2018-01-24T13:27:55.274Z,7200
2018-01-24T13:29:05.451Z,7140
2018-01-24T13:30:15.584Z,7112
2018-01-24T13:31:25.759Z,7100
2018-01-24T13:32:35.910Z,7112
2018-01-24T13:33:46.112Z,7152
2018-01-24T13:34:56.254Z,7188
2018-01-24T13:36:06.139Z,7188
2018-01-24T13:37:16.425Z,7148
2018-01-24T13:38:26.586Z,7076
2018-01-24T13:39:36.710Z,6972
2018-01-24T13:40:46.905Z,6864
2018-01-24T13:41:57.151Z,6728
2018-01-24T13:43:07.318Z,6544
2018-01-24T13:44:17.485Z,6320
2018-01-24T13:45:27.729Z,6056
2018-01-24T13:46:37.916Z,5804
2018-01-24T13:47:48.225Z,5584
2018-01-24T13:48:58.437Z,5424
2018-01-24T13:50:08.591Z,5320
2018-01-24T13:51:18.866Z,5268
2018-01-24T13:52:29.102Z,5220
2018-01-24T13:53:39.256Z,5172
2018-01-24T13:54:49.406Z,5124
2018-01-24T13:55:59.574Z,5064
2018-01-24T13:57:09.795Z,4984
2018-01-24T13:58:20.241Z,4876
2018-01-24T13:59:30.415Z,4760
2018-01-24T14:00:40.546Z,4632
2018-01-24T14:01:50.802Z,4508
2018-01-24T14:03:01.087Z,4388
2018-01-24T14:04:11.002Z,4304
2018-01-24T14:05:21.132Z,4252
2018-01-24T14:06:31.280Z,4224
2018-01-24T14:07:41.439Z,4216
2018-01-24T14:08:51.771Z,4224
2018-01-24T14:10:01.933Z,4240
2018-01-24T14:11:12.138Z,4256
2018-01-24T14:12:21.899Z,4244
2018-01-24T14:13:32.122Z,4180
2018-01-24T14:14:42.351Z,4088
2018-01-24T14:15:52.616Z,4004
2018-01-24T14:17:02.776Z,3932
2018-01-24T14:18:12.974Z,3844
2018-01-24T14:19:23.161Z,3772
2018-01-24T14:20:33.390Z,3720
2018-01-24T14:21:43.603Z,3696
2018-01-24T14:22:53.918Z,3704
2018-01-24T14:24:04.072Z,3720
2018-01-24T14:25:14.356Z,3760
2018-01-24T14:26:24.694Z,3812
2018-01-24T14:27:34.859Z,3868
2018-01-24T14:28:45.134Z,3916
2018-01-24T14:29:55.276Z,3940
2018-01-24T14:31:05.466Z,3956
2018-01-24T14:32:15.664Z,3960
2018-01-24T14:33:25.833Z,3948
2018-01-24T14:34:36.024Z,3916
2018-01-24T14:35:46.343Z,3868
2018-01-24T14:36:56.582Z,3800
2018-01-24T14:38:06.817Z,3732
2018-01-24T14:39:17.006Z,3644
2018-01-24T14:40:27.182Z,3544
2018-01-24T14:41:37.333Z,3460
2018-01-24T14:42:47.577Z,3376
2018-01-24T14:43:57.768Z,3296
2018-01-24T14:45:08.030Z,3208
2018-01-24T14:46:18.377Z,3112
2018-01-24T14:47:28.528Z,3024
2018-01-24T14:48:38.724Z,2952
2018-01-24T14:49:48.923Z,2892
2018-01-24T14:50:59.144Z,2832
2018-01-24T14:52:09.319Z,2768
2018-01-24T14:53:19.533Z,2680
2018-01-24T14:54:29.785Z,2588
2018-01-24T14:55:40.052Z,2496
2018-01-24T14:56:50.396Z,2392
2018-01-24T14:58:00.529Z,2308
2018-01-24T14:59:10.928Z,2224
2018-01-24T15:00:21.062Z,2144
2018-01-24T15:01:31.190Z,2060
2018-01-24T15:02:41.387Z,1976
2018-01-24T15:03:51.336Z,1896
2018-01-24T15:05:01.478Z,1824
2018-01-24T15:06:11.618Z,1756
2018-01-24T15:07:21.764Z,1688
2018-01-24T15:08:31.662Z,1620
2018-01-24T15:09:41.824Z,1552
2018-01-24T15:10:51.998Z,1484
2018-01-24T15:12:02.175Z,1416
2018-01-24T15:13:12.418Z,1348
2018-01-24T15:14:22.693Z,1288
2018-01-24T15:15:32.832Z,1224
2018-01-24T15:16:43.128Z,1160
2018-01-24T15:17:53.413Z,1096
2018-01-24T15:19:03.591Z,1024
2018-01-24T15:20:13.771Z,956
2018-01-24T15:21:23.967Z,884
2018-01-24T15:22:34.217Z,812
2018-01-24T15:23:44.487Z,752
2018-01-24T15:24:54.758Z,696
2018-01-24T15:26:04.952Z,640
2018-01-24T15:27:14.863Z,596
2018-01-24T15:28:25.010Z,548
2018-01-24T15:29:34.941Z,508
2018-01-24T15:30:45.135Z,468
2018-01-24T15:31:55.415Z,428
2018-01-24T15:33:05.579Z,388
2018-01-24T15:34:15.890Z,344
2018-01-24T15:35:26.058Z,312
2018-01-24T15:36:36.203Z,280
2018-01-24T15:37:46.361Z,248
2018-01-24T15:38:56.557Z,228
2018-01-24T15:40:06.733Z,208
2018-01-24T15:41:16.918Z,192
2018-01-24T15:42:27.109Z,176
2018-01-24T15:43:37.325Z,164
2018-01-24T15:44:47.481Z,152
2018-01-24T15:45:57.624Z,140
2018-01-24T15:47:07.840Z,124
2018-01-24T15:48:18.010Z,116
2018-01-24T15:49:28.171Z,108
2018-01-24T15:50:38.358Z,96
2018-01-24T15:51:48.560Z,88
2018-01-24T15:52:58.718Z,80
2018-01-24T15:54:08.921Z,72
2018-01-24T15:55:19.137Z,64
2018-01-24T15:56:29.335Z,56
2018-01-24T15:57:39.524Z,48
2018-01-24T15:58:49.709Z,44
2018-01-24T15:59:59.976Z,40
2018-01-24T16:01:10.114Z,36
2018-01-24T16:02:20.262Z,28
2018-01-24T16:03:30.442Z,24
2018-01-24T16:04:40.611Z,20
2018-01-24T16:05:50.786Z,16
2018-01-24T16:07:01.110Z,12
2018-01-24T16:08:11.488Z,12
2018-01-24T16:09:21.665Z,12
2018-01-24T16:10:31.875Z,8
2018-01-24T16:11:42.046Z,4
2018-01-24T16:12:52.257Z,8